createdAt,value
2024-02-22T07:24:39.580Z,50.00
2024-02-22T07:25:41.612Z,50.00
2024-02-22T07:26:40.759Z,50.00
2024-02-22T07:27:41.182Z,50.00
2024-02-22T07:28:40.838Z,50.00
2024-02-22T07:29:40.690Z,0.00
2024-02-22T07:30:40.746Z,0.00
2024-02-22T07:31:41.081Z,0.00
2024-02-22T07:32:41.009Z,0.00
2024-02-22T07:33:42.088Z,0.00
2024-02-22T07:34:40.786Z,0.00
2024-02-22T07:35:43.966Z,0.00
2024-02-22T07:36:40.812Z,0.00
2024-02-22T07:37:40.820Z,0.00
2024-02-22T07:38:40.791Z,0.00
2024-02-22T07:39:40.779Z,0.00
2024-02-22T07:40:40.822Z,0.00
2024-02-22T07:41:40.947Z,0.00
2024-02-22T07:42:40.800Z,0.00
2024-02-22T07:43:40.833Z,0.00
2024-02-22T07:44:40.787Z,0.00
2024-02-22T07:45:40.894Z,0.00
2024-02-22T07:46:40.817Z,0.00
2024-02-22T07:47:41.482Z,0.00
2024-02-22T07:48:40.885Z,0.00
2024-02-22T07:49:40.796Z,0.00
2024-02-22T07:50:40.958Z,0.00
2024-02-22T07:51:50.203Z,0.00
2024-02-22T07:52:41.115Z,0.00
2024-02-22T07:53:40.804Z,0.00
2024-02-22T07:54:40.832Z,0.00
2024-02-22T07:55:40.899Z,0.00
2024-02-22T07:56:40.904Z,0.00
2024-02-22T07:57:41.448Z,0.00
2024-02-22T07:58:40.823Z,0.00
2024-02-22T07:59:40.814Z,0.00
2024-02-22T08:00:40.999Z,0.00
2024-02-22T08:01:40.844Z,0.00
2024-02-22T08:02:40.987Z,0.00
2024-02-22T08:03:40.974Z,0.00
2024-02-22T08:04:41.082Z,0.00
2024-02-22T08:05:40.906Z,0.00
2024-02-22T08:06:40.877Z,0.00
2024-02-22T08:07:40.867Z,0.00
2024-02-22T08:08:41.974Z,0.00
2024-02-22T08:09:40.818Z,0.00
2024-02-22T08:10:40.858Z,0.00
2024-02-22T08:11:41.020Z,0.00
2024-02-22T08:12:40.855Z,0.00
2024-02-22T08:13:40.867Z,0.00
2024-02-22T08:14:41.377Z,0.00
2024-02-22T08:15:40.830Z,0.00
2024-02-22T08:16:40.851Z,0.00
2024-02-22T08:17:40.884Z,0.00
2024-02-22T08:18:40.846Z,0.00
2024-02-22T08:19:41.079Z,0.00
2024-02-22T08:20:41.034Z,0.00
2024-02-22T08:21:40.913Z,0.00
2024-02-22T08:22:40.974Z,0.00
2024-02-22T08:23:41.615Z,0.00
2024-02-22T08:24:40.998Z,0.00
2024-02-22T08:25:41.086Z,0.00
2024-02-22T08:26:41.465Z,0.00
2024-02-22T08:27:50.153Z,0.00
2024-02-22T08:28:41.569Z,0.00
2024-02-22T08:29:41.033Z,0.00
2024-02-22T08:30:41.053Z,0.00
2024-02-22T08:31:41.698Z,0.00
2024-02-22T08:32:41.106Z,0.00
2024-02-22T08:33:41.537Z,0.00
2024-02-22T08:34:41.085Z,0.00
2024-02-22T08:35:41.045Z,0.00
2024-02-22T08:36:41.054Z,0.00
2024-02-22T08:37:41.077Z,0.00
2024-02-22T08:38:41.478Z,0.00
2024-02-22T08:39:41.464Z,0.00
2024-02-22T08:40:41.077Z,5.13
2024-02-22T08:41:41.095Z,28.43
2024-02-22T08:42:41.062Z,50.00
2024-02-22T08:43:42.093Z,52.19
2024-02-22T08:44:41.493Z,53.88
2024-02-22T08:45:41.182Z,55.55
2024-02-22T08:46:41.120Z,57.82
2024-02-22T08:47:44.451Z,60.45
2024-02-22T08:48:41.883Z,60.64
2024-02-22T08:49:41.164Z,61.37
2024-02-22T08:50:41.075Z,62.35
2024-02-22T08:51:41.084Z,63.91
2024-02-22T08:52:41.124Z,63.99
2024-02-22T08:53:41.500Z,64.38
2024-02-22T08:54:41.103Z,65.32
2024-02-22T08:55:41.170Z,65.92
2024-02-22T08:56:41.099Z,66.27
2024-02-22T08:57:51.220Z,63.63
2024-02-22T08:58:41.127Z,60.94
2024-02-22T08:59:41.518Z,58.89
2024-02-22T09:00:41.513Z,54.67
2024-02-22T09:01:41.200Z,49.85
2024-02-22T09:02:41.123Z,45.40
2024-02-22T09:03:41.517Z,51.35
2024-02-22T09:04:41.164Z,50.00
2024-02-22T09:05:41.143Z,50.00
2024-02-22T09:06:41.617Z,50.58
2024-02-22T09:07:41.343Z,50.93
2024-02-22T09:08:41.221Z,50.12
2024-02-22T09:09:41.113Z,50.82
2024-02-22T09:10:41.143Z,50.44
2024-02-22T09:11:41.185Z,49.90
2024-02-22T09:12:41.579Z,50.89
2024-02-22T09:13:44.325Z,52.08
2024-02-22T09:14:41.486Z,52.10
2024-02-22T09:15:42.755Z,50.28
2024-02-22T09:16:41.266Z,49.33
2024-02-22T09:17:41.172Z,49.59
2024-02-22T09:18:41.217Z,47.83
2024-02-22T09:19:41.274Z,50.00
2024-02-22T09:20:41.155Z,50.00
2024-02-22T09:21:41.531Z,50.81
2024-02-22T09:22:41.159Z,50.00
2024-02-22T09:23:41.737Z,51.46
2024-02-22T09:24:41.205Z,53.73
2024-02-22T09:25:41.308Z,56.28
2024-02-22T09:26:41.312Z,54.25
2024-02-22T09:27:41.380Z,54.35
2024-02-22T09:28:41.495Z,55.67
2024-02-22T09:29:41.475Z,56.46
2024-02-22T09:30:41.536Z,55.20
2024-02-22T09:31:41.659Z,55.68
2024-02-22T09:32:41.687Z,53.27
2024-02-22T09:33:41.779Z,53.58
2024-02-22T09:34:41.830Z,53.48
2024-02-22T09:35:41.828Z,52.80
2024-02-22T09:36:42.063Z,54.62
2024-02-22T09:37:41.890Z,54.62
2024-02-22T09:38:41.927Z,53.06
2024-02-22T09:39:41.961Z,53.94
2024-02-22T09:40:42.062Z,52.77
2024-02-22T09:41:42.493Z,50.60
2024-02-22T09:42:42.066Z,52.97
2024-02-22T09:43:42.140Z,55.22
2024-02-22T09:44:42.271Z,57.23
2024-02-22T09:45:43.196Z,59.32
2024-02-22T09:46:42.600Z,57.87
2024-02-22T09:47:42.388Z,58.89
2024-02-22T09:48:42.537Z,62.40
2024-02-22T09:49:42.563Z,62.28
2024-02-22T09:50:42.669Z,62.16
2024-02-22T09:51:43.005Z,63.61
2024-02-22T09:52:43.071Z,64.11
2024-02-22T09:53:42.738Z,65.26
2024-02-22T09:54:42.762Z,66.71
2024-02-22T09:55:42.888Z,67.26
2024-02-22T09:56:42.998Z,68.47
2024-02-22T09:57:42.993Z,66.33
2024-02-22T09:58:42.993Z,66.33
2024-02-22T09:59:43.011Z,61.48
2024-02-22T10:00:58.752Z,55.20
2024-02-22T10:01:43.580Z,55.23
2024-02-22T10:02:43.077Z,51.39
2024-02-22T10:03:43.135Z,43.38
2024-02-22T10:04:43.203Z,38.97
2024-02-22T10:05:43.195Z,34.17
2024-02-22T10:06:43.552Z,32.36
2024-02-22T10:07:43.157Z,50.00
2024-02-22T10:08:45.881Z,50.00
2024-02-22T10:09:43.110Z,50.02
2024-02-22T10:10:43.198Z,50.38
2024-02-22T10:11:43.659Z,47.93
2024-02-22T10:12:43.617Z,44.43
2024-02-22T10:13:43.279Z,43.60
2024-02-22T10:14:43.195Z,52.27
2024-02-22T10:15:43.108Z,51.76
2024-02-22T10:16:43.603Z,54.97
2024-02-22T10:17:43.168Z,51.42
2024-02-22T10:18:43.216Z,53.05
2024-02-22T10:19:43.118Z,53.86
2024-02-22T10:20:45.097Z,52.00
2024-02-22T10:21:43.358Z,50.71
2024-02-22T10:22:43.563Z,46.92
2024-02-22T10:23:43.102Z,45.75
2024-02-22T10:24:43.111Z,44.35
2024-02-22T10:25:43.155Z,42.67
2024-02-22T10:26:43.126Z,50.52
2024-02-22T10:27:44.557Z,52.14
2024-02-22T10:28:43.154Z,50.93
2024-02-22T10:29:43.160Z,52.37
2024-02-22T10:30:43.516Z,51.29
2024-02-22T10:31:43.302Z,52.40
2024-02-22T10:32:43.945Z,53.75
2024-02-22T10:33:43.477Z,52.57
2024-02-22T10:34:43.484Z,53.39
2024-02-22T10:35:43.502Z,52.38
2024-02-22T10:36:43.544Z,53.45
2024-02-22T10:37:44.594Z,50.33
2024-02-22T10:38:43.600Z,50.92
2024-02-22T10:39:43.640Z,50.68
2024-02-22T10:40:43.724Z,50.37
2024-02-22T10:41:43.723Z,51.70
2024-02-22T10:42:44.012Z,51.46
2024-02-22T10:43:43.809Z,55.26
2024-02-22T10:44:43.853Z,57.92
2024-02-22T10:45:43.909Z,63.87
2024-02-22T10:46:44.068Z,61.32
2024-02-22T10:47:44.602Z,63.17
2024-02-22T10:48:44.228Z,67.79
2024-02-22T10:49:44.189Z,68.02
2024-02-22T10:50:44.254Z,69.38
2024-02-22T10:51:44.328Z,66.83
2024-02-22T10:52:44.454Z,66.45
2024-02-22T10:53:44.452Z,69.20
2024-02-22T10:54:44.580Z,72.94
2024-02-22T10:55:44.629Z,76.09
2024-02-22T10:56:44.663Z,75.39
2024-02-22T10:57:44.733Z,73.93
2024-02-22T10:58:45.965Z,69.27
2024-02-22T10:59:44.886Z,71.97
2024-02-22T11:00:44.984Z,77.99
2024-02-22T11:01:45.055Z,77.86
2024-02-22T11:02:45.519Z,76.78
2024-02-22T11:03:45.146Z,76.48
2024-02-22T11:04:45.185Z,75.69
2024-02-22T11:05:45.241Z,75.80
2024-02-22T11:06:45.317Z,72.92
2024-02-22T11:07:45.429Z,75.55
2024-02-22T11:08:45.498Z,84.51
2024-02-22T11:09:45.462Z,84.50
2024-02-22T11:10:45.544Z,85.02
2024-02-22T11:11:45.704Z,85.92
2024-02-22T11:12:45.611Z,82.69
2024-02-22T11:13:45.690Z,78.87
2024-02-22T11:14:45.714Z,78.85
2024-02-22T11:15:45.770Z,80.36
2024-02-22T11:16:45.849Z,83.89
2024-02-22T11:17:46.033Z,83.83
2024-02-22T11:18:45.958Z,82.25
2024-02-22T11:19:45.995Z,83.02
2024-02-22T11:20:46.018Z,79.30
2024-02-22T11:21:46.083Z,79.95
2024-02-22T11:22:46.591Z,82.13
2024-02-22T11:23:46.640Z,78.52
2024-02-22T11:24:46.277Z,80.64
2024-02-22T11:25:46.299Z,79.60
2024-02-22T11:26:46.319Z,77.26
2024-02-22T11:27:46.536Z,77.34
2024-02-22T11:28:46.554Z,84.21
2024-02-22T11:29:46.546Z,84.96
2024-02-22T11:30:46.557Z,85.82
2024-02-22T11:31:46.658Z,87.99
2024-02-22T11:32:47.051Z,87.80
2024-02-22T11:33:46.847Z,88.54
2024-02-22T11:34:46.788Z,86.64
2024-02-22T11:35:46.783Z,88.95
2024-02-22T11:36:46.830Z,93.03
2024-02-22T11:37:47.064Z,96.32
2024-02-22T11:38:47.006Z,94.46
2024-02-22T11:39:46.976Z,96.37
2024-02-22T11:40:47.077Z,98.30
2024-02-22T11:41:47.031Z,99.39
2024-02-22T11:42:47.069Z,100.37
2024-02-22T11:43:47.153Z,101.68
2024-02-22T11:44:47.667Z,102.34
2024-02-22T11:45:47.191Z,101.87
2024-02-22T11:46:47.247Z,103.81
2024-02-22T11:47:47.325Z,103.90
2024-02-22T11:48:47.348Z,102.30
2024-02-22T11:49:47.350Z,98.72
2024-02-22T11:50:47.365Z,97.92
2024-02-22T11:51:47.403Z,98.21
2024-02-22T11:52:47.559Z,102.36
2024-02-22T11:53:48.030Z,103.43
2024-02-22T11:54:47.500Z,104.52
2024-02-22T11:55:47.552Z,105.56
2024-02-22T11:56:47.581Z,106.60
2024-02-22T11:57:47.600Z,107.90
2024-02-22T11:58:47.639Z,103.46
2024-02-22T11:59:48.038Z,100.10
2024-02-22T12:00:47.732Z,96.82
2024-02-22T12:01:47.752Z,97.88
2024-02-22T12:02:47.780Z,99.67
2024-02-22T12:03:47.785Z,101.55
2024-02-22T12:04:47.836Z,101.93
2024-02-22T12:05:47.910Z,104.75
2024-02-22T12:06:47.957Z,107.52
2024-02-22T12:07:47.929Z,108.98
2024-02-22T12:08:47.923Z,107.93
2024-02-22T12:09:47.953Z,111.54
2024-02-22T12:10:48.197Z,115.29
2024-02-22T12:11:48.065Z,108.58
2024-02-22T12:12:48.059Z,107.44
2024-02-22T12:13:48.109Z,107.59
2024-02-22T12:14:48.550Z,105.89
2024-02-22T12:15:48.193Z,108.07
2024-02-22T12:16:48.193Z,107.85
2024-02-22T12:17:48.551Z,107.47
2024-02-22T12:18:48.256Z,109.09
2024-02-22T12:19:48.564Z,110.46
2024-02-22T12:20:48.274Z,111.80
2024-02-22T12:21:48.334Z,107.20
2024-02-22T12:22:48.315Z,107.21
2024-02-22T12:23:48.294Z,105.82
2024-02-22T12:24:48.306Z,105.83
2024-02-22T12:25:48.330Z,104.78
2024-02-22T12:26:48.306Z,107.56
2024-02-22T12:27:48.313Z,107.95
2024-02-22T12:28:48.372Z,110.11
2024-02-22T12:29:48.341Z,108.51
2024-02-22T12:30:48.345Z,104.63
2024-02-22T12:31:48.364Z,102.82
2024-02-22T12:32:48.681Z,100.29
2024-02-22T12:33:48.502Z,101.66
2024-02-22T12:34:48.522Z,102.04
2024-02-22T12:35:48.523Z,102.19
2024-02-22T12:36:48.561Z,100.82
2024-02-22T12:37:49.070Z,97.04
2024-02-22T12:38:48.603Z,95.99
2024-02-22T12:39:48.714Z,96.81
2024-02-22T12:40:48.823Z,96.66
2024-02-22T12:41:49.145Z,98.81
2024-02-22T12:42:48.836Z,99.55
2024-02-22T12:43:48.973Z,100.25
2024-02-22T12:44:49.967Z,100.18
2024-02-22T12:45:48.993Z,100.65
2024-02-22T12:46:49.071Z,98.37
2024-02-22T12:47:49.306Z,99.00
2024-02-22T12:48:49.260Z,94.12
2024-02-22T12:49:49.281Z,94.75
2024-02-22T12:50:49.286Z,95.02
2024-02-22T12:51:49.346Z,96.19
2024-02-22T12:52:49.395Z,96.66
2024-02-22T12:53:49.430Z,97.78
2024-02-22T12:54:49.476Z,97.43
2024-02-22T12:55:49.572Z,98.69
2024-02-22T12:56:49.559Z,100.25
2024-02-22T12:57:49.608Z,102.01
2024-02-22T12:58:49.752Z,101.95
2024-02-22T12:59:49.669Z,99.64
2024-02-22T13:00:49.783Z,100.80
2024-02-22T13:01:49.803Z,102.04
2024-02-22T13:02:49.846Z,104.26
2024-02-22T13:03:49.894Z,112.75
2024-02-22T13:04:50.008Z,113.45
2024-02-22T13:05:49.983Z,112.89
2024-02-22T13:06:50.083Z,111.08
2024-02-22T13:07:50.647Z,108.75
2024-02-22T13:08:50.137Z,107.43
2024-02-22T13:09:50.184Z,110.54
2024-02-22T13:10:50.297Z,111.63
2024-02-22T13:11:50.465Z,111.96
2024-02-22T13:12:50.586Z,112.40
2024-02-22T13:13:50.402Z,107.37
2024-02-22T13:14:50.397Z,105.21
2024-02-22T13:15:50.457Z,105.10
2024-02-22T13:16:50.490Z,106.17
2024-02-22T13:17:50.605Z,108.15
2024-02-22T13:18:50.656Z,106.57
2024-02-22T13:19:50.689Z,110.31
2024-02-22T13:20:50.615Z,112.02
2024-02-22T13:21:50.655Z,110.05
2024-02-22T13:22:51.281Z,110.05
2024-02-22T13:23:51.100Z,111.78
2024-02-22T13:24:50.816Z,112.49
2024-02-22T13:25:50.911Z,113.24
2024-02-22T13:26:50.934Z,115.24
2024-02-22T13:27:51.150Z,115.50
2024-02-22T13:28:51.118Z,110.77
2024-02-22T13:29:51.060Z,108.75
2024-02-22T13:30:51.118Z,106.56
2024-02-22T13:31:51.179Z,107.54
2024-02-22T13:32:52.298Z,109.72
2024-02-22T13:33:51.730Z,108.57
2024-02-22T13:34:51.436Z,107.54
2024-02-22T13:35:51.355Z,108.69
2024-02-22T13:36:51.396Z,109.69
2024-02-22T13:37:51.472Z,107.74
2024-02-22T13:38:51.600Z,108.13
2024-02-22T13:39:58.033Z,114.56
2024-02-22T13:40:51.560Z,114.75
2024-02-22T13:41:51.834Z,115.43
2024-02-22T13:42:51.518Z,116.03
2024-02-22T13:43:51.551Z,116.36
2024-02-22T13:44:51.618Z,115.00
2024-02-22T13:45:51.547Z,115.75
2024-02-22T13:46:51.583Z,116.98
2024-02-22T13:47:51.782Z,116.24
2024-02-22T13:48:51.959Z,115.72
2024-02-22T13:49:51.652Z,116.16
2024-02-22T13:50:51.544Z,115.06
2024-02-22T13:51:51.547Z,116.67
2024-02-22T13:52:51.597Z,118.29
2024-02-22T13:53:51.814Z,116.98
2024-02-22T13:54:51.808Z,118.26
2024-02-22T13:55:51.887Z,117.57
2024-02-22T13:56:52.830Z,114.56
2024-02-22T13:57:51.875Z,117.03
2024-02-22T13:58:51.850Z,116.12
2024-02-22T13:59:51.840Z,117.36
2024-02-22T14:00:51.927Z,112.86
2024-02-22T14:01:52.492Z,119.52
2024-02-22T14:02:52.024Z,116.69
2024-02-22T14:03:52.099Z,114.69
2024-02-22T14:04:52.246Z,119.62
2024-02-22T14:05:53.593Z,122.55
2024-02-22T14:06:52.346Z,120.84
2024-02-22T14:07:52.279Z,122.11
2024-02-22T14:08:52.377Z,127.05
2024-02-22T14:09:52.255Z,127.57
2024-02-22T14:10:52.268Z,130.87
2024-02-22T14:11:52.160Z,130.45
2024-02-22T14:12:52.104Z,125.83
2024-02-22T14:13:52.008Z,128.56
2024-02-22T14:14:51.989Z,126.12
2024-02-22T14:15:52.055Z,124.93
2024-02-22T14:16:52.029Z,127.31
2024-02-22T14:17:52.012Z,126.33
2024-02-22T14:18:52.018Z,121.02
2024-02-22T14:19:52.020Z,120.18
2024-02-22T14:20:52.032Z,123.00
2024-02-22T14:21:51.996Z,125.95
2024-02-22T14:22:52.073Z,125.77
2024-02-22T14:23:52.141Z,125.94
2024-02-22T14:24:52.178Z,125.79
2024-02-22T14:25:52.301Z,127.87
2024-02-22T14:26:52.314Z,139.66
2024-02-22T14:27:52.367Z,147.83
2024-02-22T14:28:52.483Z,148.90
2024-02-22T14:29:52.497Z,147.89
2024-02-22T14:30:52.543Z,144.16
2024-02-22T14:31:52.635Z,146.35
2024-02-22T14:32:53.130Z,144.66
2024-02-22T14:33:52.814Z,141.07
2024-02-22T14:34:53.451Z,138.29
2024-02-22T14:35:52.859Z,140.11
2024-02-22T14:36:52.954Z,137.52
2024-02-22T14:37:53.046Z,135.39
2024-02-22T14:38:53.052Z,133.38
2024-02-22T14:39:53.136Z,131.36
2024-02-22T14:40:53.212Z,130.70
2024-02-22T14:41:53.247Z,127.56
2024-02-22T14:42:53.345Z,125.79
2024-02-22T14:43:53.373Z,123.34
2024-02-22T14:44:53.420Z,125.09
2024-02-22T14:45:53.626Z,123.33
2024-02-22T14:46:53.566Z,123.31
2024-02-22T14:47:53.674Z,119.53
2024-02-22T14:48:53.694Z,120.55
2024-02-22T14:49:54.228Z,121.17
2024-02-22T14:50:54.097Z,117.62
2024-02-22T14:51:53.844Z,118.54
2024-02-22T14:52:53.993Z,116.90
2024-02-22T14:53:53.932Z,117.54
2024-02-22T14:54:53.978Z,121.11
2024-02-22T14:55:54.075Z,116.72
2024-02-22T14:56:54.125Z,118.88
2024-02-22T14:57:54.645Z,120.87
2024-02-22T14:58:54.311Z,118.65
2024-02-22T14:59:54.265Z,118.44
2024-02-22T15:00:54.382Z,120.31
2024-02-22T15:01:54.385Z,121.17
2024-02-22T15:02:54.626Z,122.33
2024-02-22T15:03:54.486Z,121.16
2024-02-22T15:04:54.601Z,122.50
2024-02-22T15:05:54.702Z,122.23
2024-02-22T15:06:54.741Z,120.15
2024-02-22T15:07:55.183Z,116.70
2024-02-22T15:08:54.871Z,112.15
2024-02-22T15:09:54.893Z,113.49
2024-02-22T15:10:55.052Z,118.54
2024-02-22T15:11:55.142Z,120.48
2024-02-22T15:12:55.104Z,125.08
2024-02-22T15:13:55.209Z,122.38
2024-02-22T15:14:55.430Z,124.32
2024-02-22T15:15:55.318Z,128.43
2024-02-22T15:16:55.416Z,129.12
2024-02-22T15:17:55.493Z,130.25
2024-02-22T15:18:55.595Z,129.79
2024-02-22T15:19:55.616Z,125.76
2024-02-22T15:20:55.641Z,127.81
2024-02-22T15:21:55.710Z,126.30
2024-02-22T15:22:56.169Z,119.78
2024-02-22T15:23:55.889Z,118.64
2024-02-22T15:24:55.946Z,121.50
2024-02-22T15:25:56.062Z,122.62
2024-02-22T15:26:56.097Z,122.00
2024-02-22T15:27:56.129Z,123.40
2024-02-22T15:28:56.241Z,119.62
2024-02-22T15:29:56.285Z,117.98
2024-02-22T15:30:58.867Z,115.16
2024-02-22T15:31:56.363Z,115.18
2024-02-22T15:32:56.416Z,113.77
2024-02-22T15:34:04.581Z,112.54
2024-02-22T15:34:56.489Z,115.21
2024-02-22T15:35:56.427Z,115.45
2024-02-22T15:36:56.363Z,113.38
2024-02-22T15:37:56.394Z,116.38
2024-02-22T15:38:56.367Z,113.98
2024-02-22T15:39:56.375Z,101.12
2024-02-22T15:40:56.425Z,96.89
2024-02-22T15:41:56.367Z,93.55
2024-02-22T15:42:56.654Z,89.55
2024-02-22T15:43:56.412Z,88.54
2024-02-22T15:44:56.374Z,88.25
2024-02-22T15:45:56.376Z,96.83
2024-02-22T15:46:56.408Z,96.36
2024-02-22T15:47:56.444Z,96.85
2024-02-22T15:48:56.477Z,100.84
2024-02-22T15:49:56.405Z,106.11
2024-02-22T15:50:56.393Z,108.48
2024-02-22T15:51:56.380Z,103.22
2024-02-22T15:52:56.689Z,101.17
2024-02-22T15:53:56.389Z,101.09
2024-02-22T15:54:56.377Z,99.26
2024-02-22T15:55:56.417Z,97.17
2024-02-22T15:56:56.678Z,99.17
2024-02-22T15:57:56.394Z,99.99
2024-02-22T15:58:56.477Z,101.69
2024-02-22T15:59:56.387Z,97.30
2024-02-22T16:00:56.477Z,100.00
2024-02-22T16:01:56.431Z,97.66
2024-02-22T16:02:56.408Z,93.71
2024-02-22T16:03:56.429Z,96.12
2024-02-22T16:04:56.521Z,99.47
2024-02-22T16:05:56.456Z,99.62
2024-02-22T16:06:56.392Z,101.70
2024-02-22T16:07:56.426Z,103.29
2024-02-22T16:08:56.384Z,102.65
2024-02-22T16:09:56.387Z,98.92
2024-02-22T16:10:56.570Z,99.02
2024-02-22T16:11:56.525Z,101.59
2024-02-22T16:12:56.568Z,101.95
2024-02-22T16:13:56.697Z,98.24
2024-02-22T16:14:56.666Z,95.92
2024-02-22T16:15:56.766Z,99.91
2024-02-22T16:16:56.993Z,99.64
2024-02-22T16:17:57.224Z,100.61
2024-02-22T16:18:57.522Z,100.81
2024-02-22T16:19:56.998Z,100.87
2024-02-22T16:20:57.042Z,102.49
2024-02-22T16:21:57.114Z,104.14
2024-02-22T16:22:57.196Z,104.65
2024-02-22T16:23:57.340Z,105.73
2024-02-22T16:24:57.280Z,106.85
2024-02-22T16:25:57.564Z,109.39
2024-02-22T16:26:57.389Z,110.51
2024-02-22T16:27:57.446Z,109.85
2024-02-22T16:28:57.583Z,110.25
2024-02-22T16:29:57.572Z,110.30
2024-02-22T16:30:57.682Z,111.93
2024-02-22T16:31:57.750Z,112.16
2024-02-22T16:32:57.889Z,112.99
2024-02-22T16:33:57.867Z,113.18
2024-02-22T16:34:57.915Z,114.63
2024-02-22T16:35:57.921Z,114.15
2024-02-22T16:36:57.990Z,115.48
2024-02-22T16:37:58.079Z,115.52
2024-02-22T16:39:02.880Z,115.46
2024-02-22T16:39:58.102Z,115.58
2024-02-22T16:40:58.203Z,116.15
2024-02-22T16:41:58.100Z,116.83
2024-02-22T16:42:58.113Z,117.02
2024-02-22T16:43:58.167Z,118.81
2024-02-22T16:44:58.152Z,119.06
2024-02-22T16:45:58.128Z,118.86
2024-02-22T16:46:58.126Z,120.90
2024-02-22T16:47:58.163Z,119.46
2024-02-22T16:48:58.204Z,121.17
2024-02-22T16:49:58.159Z,120.60
2024-02-22T16:50:58.121Z,120.60
2024-02-22T16:51:58.122Z,121.24
2024-02-22T16:52:58.158Z,119.91
2024-02-22T16:53:58.128Z,120.55
2024-02-22T16:54:58.124Z,119.75
2024-02-22T16:55:58.143Z,119.74
2024-02-22T16:56:58.122Z,120.01
2024-02-22T16:57:58.140Z,121.37
2024-02-22T16:58:58.142Z,120.27
2024-02-22T16:59:58.134Z,121.26
2024-02-22T17:00:58.178Z,117.17
2024-02-22T17:01:58.220Z,121.56
2024-02-22T17:02:58.162Z,120.15
2024-02-22T17:03:58.257Z,121.90
2024-02-22T17:04:58.367Z,122.16
2024-02-22T17:05:58.559Z,119.89
2024-02-22T17:06:58.476Z,119.78
2024-02-22T17:07:58.514Z,122.10
2024-02-22T17:08:58.536Z,121.57
2024-02-22T17:09:58.591Z,121.65
2024-02-22T17:10:58.726Z,121.16
2024-02-22T17:11:58.769Z,120.89
2024-02-22T17:12:58.745Z,119.81
2024-02-22T17:13:58.893Z,120.21
2024-02-22T17:14:58.862Z,119.83
2024-02-22T17:15:58.873Z,120.07
2024-02-22T17:16:58.978Z,120.14
2024-02-22T17:17:59.007Z,120.63
2024-02-22T17:18:59.055Z,120.10
2024-02-22T17:19:59.113Z,118.32
2024-02-22T17:20:59.117Z,119.04
2024-02-22T17:21:59.168Z,118.71
2024-02-22T17:22:59.261Z,118.95
2024-02-22T17:23:59.232Z,119.04
2024-02-22T17:24:59.302Z,118.07
2024-02-22T17:25:59.345Z,117.08
2024-02-22T17:26:59.368Z,118.43
2024-02-22T17:27:59.388Z,117.93
2024-02-22T17:28:59.468Z,118.12
2024-02-22T17:29:59.466Z,116.84
2024-02-22T17:30:59.509Z,117.35
2024-02-22T17:31:59.560Z,117.53
2024-02-22T17:32:59.656Z,118.02
2024-02-22T17:33:59.662Z,116.89
2024-02-22T17:34:59.677Z,116.60
2024-02-22T17:35:59.700Z,115.34
2024-02-22T17:36:59.762Z,115.53
2024-02-22T17:37:59.823Z,115.81
2024-02-22T17:38:59.837Z,114.95
2024-02-22T17:39:59.853Z,114.92
2024-02-22T17:40:59.947Z,113.29
2024-02-22T17:41:59.941Z,115.71
2024-02-22T17:42:59.971Z,115.40
2024-02-22T17:44:00.069Z,115.33
2024-02-22T17:45:00.017Z,114.19
2024-02-22T17:46:00.082Z,114.39
2024-02-22T17:47:00.140Z,114.75
2024-02-22T17:48:00.200Z,113.78
2024-02-22T17:49:00.251Z,114.08
2024-02-22T17:50:00.307Z,114.09
2024-02-22T17:51:00.295Z,114.53
2024-02-22T17:52:00.369Z,113.99
2024-02-22T17:53:00.499Z,112.31
2024-02-22T17:54:00.427Z,113.12
2024-02-22T17:55:00.499Z,111.58
2024-02-22T17:56:00.664Z,111.68
2024-02-22T17:57:02.272Z,111.82
2024-02-22T17:58:00.589Z,111.90
2024-02-22T17:59:00.613Z,112.21
2024-02-22T18:00:00.587Z,111.99
2024-02-22T18:01:00.676Z,111.87
2024-02-22T18:02:00.641Z,112.15
2024-02-22T18:03:03.983Z,110.48
2024-02-22T18:04:00.629Z,110.62
2024-02-22T18:05:00.847Z,110.51
2024-02-22T18:06:00.696Z,111.04
2024-02-22T18:07:00.702Z,109.15
2024-02-22T18:08:00.730Z,111.08
2024-02-22T18:09:00.708Z,110.96
2024-02-22T18:10:00.720Z,109.46
2024-02-22T18:11:00.823Z,109.18
2024-02-22T18:12:00.838Z,108.19
2024-02-22T18:13:00.757Z,108.56
2024-02-22T18:14:03.979Z,108.47
2024-02-22T18:15:00.754Z,108.55
2024-02-22T18:16:00.797Z,108.93
2024-02-22T18:17:00.826Z,108.69
2024-02-22T18:18:00.806Z,108.89
2024-02-22T18:19:00.863Z,108.29
2024-02-22T18:20:02.216Z,106.13
2024-02-22T18:21:00.788Z,108.28
2024-02-22T18:22:00.782Z,107.86
2024-02-22T18:23:00.841Z,108.15
2024-02-22T18:24:00.769Z,105.87
2024-02-22T18:25:00.799Z,108.81
2024-02-22T18:26:00.850Z,106.52
2024-02-22T18:27:00.795Z,106.00
2024-02-22T18:28:00.802Z,105.04
2024-02-22T18:29:00.802Z,105.93
2024-02-22T18:30:00.786Z,107.08
2024-02-22T18:31:00.775Z,105.17
2024-02-22T18:32:00.821Z,104.77
2024-02-22T18:33:00.834Z,104.41
2024-02-22T18:34:00.854Z,105.17
2024-02-22T18:35:01.010Z,103.95
2024-02-22T18:36:00.780Z,104.12
2024-02-22T18:37:00.817Z,104.86
2024-02-22T18:38:00.840Z,103.62
2024-02-22T18:39:00.819Z,105.50
2024-02-22T18:40:00.785Z,101.55
2024-02-22T18:41:00.842Z,102.14
2024-02-22T18:42:00.796Z,103.16
2024-02-22T18:43:00.791Z,103.04
2024-02-22T18:44:00.820Z,103.91
2024-02-22T18:45:03.051Z,105.40
2024-02-22T18:46:00.790Z,104.28
2024-02-22T18:47:00.817Z,104.77
2024-02-22T18:48:00.841Z,104.26
2024-02-22T18:49:00.854Z,103.03
2024-02-22T18:50:00.951Z,102.47
2024-02-22T18:51:00.804Z,102.98
2024-02-22T18:52:00.797Z,102.38
2024-02-22T18:53:00.864Z,100.32
2024-02-22T18:54:00.802Z,101.72
2024-02-22T18:55:00.802Z,102.96
2024-02-22T18:56:00.884Z,102.01
2024-02-22T18:57:00.826Z,99.95
2024-02-22T18:58:00.806Z,100.65
2024-02-22T18:59:00.864Z,98.64
2024-02-22T19:00:00.818Z,99.85
2024-02-22T19:01:00.916Z,99.08
2024-02-22T19:02:00.852Z,100.91
2024-02-22T19:03:00.832Z,101.30
2024-02-22T19:04:00.890Z,99.44
2024-02-22T19:05:00.888Z,99.98
2024-02-22T19:06:00.852Z,100.99
2024-02-22T19:07:00.836Z,98.88
2024-02-22T19:08:00.853Z,98.53
2024-02-22T19:09:01.239Z,98.74
2024-02-22T19:10:00.862Z,98.67
2024-02-22T19:11:00.884Z,98.82
2024-02-22T19:12:01.705Z,100.08
2024-02-22T19:13:00.855Z,97.30
2024-02-22T19:14:00.881Z,99.20
2024-02-22T19:15:00.874Z,97.86
2024-02-22T19:16:00.866Z,97.12
2024-02-22T19:17:00.887Z,98.53
2024-02-22T19:18:00.948Z,97.35
2024-02-22T19:19:00.908Z,96.61
2024-02-22T19:20:01.159Z,99.61
2024-02-22T19:21:00.989Z,98.44
2024-02-22T19:22:00.868Z,97.29
2024-02-22T19:23:00.886Z,95.40
2024-02-22T19:24:00.878Z,95.44
2024-02-22T19:25:00.924Z,98.25
2024-02-22T19:26:00.912Z,96.60
2024-02-22T19:27:02.875Z,95.60
2024-02-22T19:28:00.887Z,95.66
2024-02-22T19:29:00.908Z,95.75
2024-02-22T19:30:01.068Z,96.22
2024-02-22T19:31:00.893Z,95.81
2024-02-22T19:32:00.922Z,95.47
2024-02-22T19:33:00.909Z,94.63
2024-02-22T19:34:00.948Z,94.14
2024-02-22T19:35:01.043Z,96.30
2024-02-22T19:36:00.905Z,93.66
2024-02-22T19:37:00.908Z,93.35
2024-02-22T19:38:00.939Z,95.48
2024-02-22T19:39:00.946Z,94.10
2024-02-22T19:40:00.915Z,92.57
2024-02-22T19:41:01.763Z,95.59
2024-02-22T19:42:00.920Z,95.57
2024-02-22T19:43:00.924Z,94.11
2024-02-22T19:44:00.948Z,93.04
2024-02-22T19:45:00.922Z,92.97
2024-02-22T19:46:00.928Z,93.07
2024-02-22T19:47:01.010Z,93.21
2024-02-22T19:48:00.954Z,93.78
2024-02-22T19:49:01.014Z,91.67
2024-02-22T19:50:00.996Z,92.17
2024-02-22T19:51:00.925Z,90.18
2024-02-22T19:52:00.931Z,92.21
2024-02-22T19:53:00.978Z,92.30
2024-02-22T19:54:00.932Z,90.95
2024-02-22T19:55:00.953Z,92.11
2024-02-22T19:56:00.964Z,90.71
2024-02-22T19:57:00.987Z,92.14
2024-02-22T19:58:00.952Z,90.62
2024-02-22T19:59:01.367Z,90.12
2024-02-22T20:00:01.500Z,90.38
2024-02-22T20:01:01.293Z,90.32
2024-02-22T20:02:00.974Z,92.03
2024-02-22T20:03:00.952Z,89.82
2024-02-22T20:04:01.008Z,91.18
2024-02-22T20:05:00.993Z,90.31
2024-02-22T20:06:00.965Z,90.89
2024-02-22T20:07:01.082Z,90.06